Time;durP1;ratioP1;P1;durP2;ratioP2;P2;SDS_P1;SDS_P2;PMS_P1;PMS_P2;Temp;Humidity;BMP_temperature;BMP_pressure;BME280_temperature;BME280_humidity;BME280_pressure;Samples;Min_cycle;Max_cycle;Signal;HPM_P1;HPM_P2
2023/08/24 00:00:20;;;;;;;17.63;11.23;;;24.90;80.00;;;25.58;54.03;95080.16;5071086;28;20442;-56
2023/08/24 00:02:48;;;;;;;16.97;11.70;;;24.90;80.30;;;25.58;53.70;95079.34;5073319;28;20543;-56
2023/08/24 00:05:16;;;;;;;17.73;11.60;;;24.90;80.40;;;25.57;54.06;95070.44;5075924;28;20460;-59
2023/08/24 00:07:44;;;;;;;12.20;11.00;;;24.90;80.60;;;25.56;53.82;95081.44;5073051;28;20491;-59
2023/08/24 00:10:11;;;;;;;12.07;9.87;;;24.90;80.60;;;25.54;53.94;95076.28;5069582;28;20454;-55
2023/08/24 00:12:39;;;;;;;13.10;9.90;;;24.90;80.70;;;25.52;53.56;95070.31;5070300;28;20980;-59
2023/08/24 00:15:10;;;;;;;12.90;10.60;;;24.80;80.70;;;25.51;54.16;95062.47;5067851;28;20824;-59
2023/08/24 00:17:38;;;;;;;17.03;11.67;;;24.80;80.80;;;25.49;54.19;95069.94;5069403;28;20454;-59
2023/08/24 00:20:10;;;;;;;12.53;11.00;;;24.80;80.70;;;25.48;54.19;95071.81;5072817;28;20450;-55
2023/08/24 00:22:39;;;;;;;14.63;10.60;;;24.80;80.80;;;25.46;54.00;95067.72;5067536;28;20521;-61
2023/08/24 00:25:08;;;;;;;20.17;11.60;;;24.80;81.00;;;25.45;54.19;95068.75;5069514;28;20454;-59
2023/08/24 00:27:35;;;;;;;14.33;11.03;;;24.80;81.00;;;25.41;54.08;95061.13;5074764;28;20460;-59
2023/08/24 00:30:06;;;;;;;14.13;11.70;;;24.80;81.40;;;25.40;53.93;95062.16;5068197;28;20760;-55
2023/08/24 00:32:34;;;;;;;15.60;11.03;;;24.80;81.60;;;25.39;54.22;95070.47;5072758;28;20449;-58
2023/08/24 00:35:01;;;;;;;16.70;11.43;;;24.70;81.80;;;25.37;54.31;95073.41;5070324;28;20542;-58
2023/08/24 00:37:29;;;;;;;12.73;11.40;;;24.70;81.90;;;25.35;54.65;95075.50;5074095;28;20446;-56
2023/08/24 00:39:57;;;;;;;13.60;12.00;;;24.70;82.30;;;25.33;54.27;95074.91;5067183;28;20526;-59
2023/08/24 00:42:26;;;;;;;20.60;13.03;;;24.70;82.30;;;25.32;54.50;95069.75;5073701;28;20445;-59
2023/08/24 00:44:53;;;;;;;16.03;12.50;;;24.70;82.30;;;25.33;54.27;95074.91;5066366;28;20502;-56
2023/08/24 00:47:20;;;;;;;18.20;12.57;;;24.60;82.20;;;25.31;54.68;95066.22;5070331;28;20458;-55
2023/08/24 00:49:48;;;;;;;13.63;11.87;;;24.60;82.30;;;25.29;54.95;95071.03;5072113;28;20595;-55
2023/08/24 00:52:15;;;;;;;20.37;13.07;;;24.60;82.50;;;25.26;54.28;95071.44;5069599;28;20454;-55
2023/08/24 00:54:43;;;;;;;19.80;16.60;;;24.60;82.70;;;25.23;54.56;95072.72;5072700;28;20478;-59
2023/08/24 00:57:12;;;;;;;24.63;15.17;;;24.60;83.00;;;25.20;54.63;95083.13;5070285;28;20486;-54
2023/08/24 00:59:40;;;;;;;23.67;17.03;;;24.50;82.70;;;25.16;54.99;95082.78;5071338;28;20604;-58
2023/08/24 01:02:07;;;;;;;25.00;18.37;;;24.50;83.20;;;25.14;54.44;95079.47;5065792;28;20454;-59
2023/08/24 01:04:35;;;;;;;19.00;15.30;;;24.50;83.20;;;25.12;54.96;95067.28;5068795;28;21052;-58
2023/08/24 01:07:02;;;;;;;15.37;13.73;;;24.50;83.30;;;25.09;54.71;95067.75;5072927;28;20504;-58
2023/08/24 01:09:29;;;;;;;19.83;14.57;;;24.40;83.30;;;25.06;55.11;95069.00;5073057;28;20853;-58
2023/08/24 01:12:02;;;;;;;24.43;14.13;;;24.40;83.20;;;25.02;54.70;95070.53;5067200;28;20869;-56
2023/08/24 01:14:43;;;;;;;21.23;14.10;;;24.40;83.20;;;24.93;54.88;95075.38;5068990;28;20512;-56
2023/08/24 01:17:12;;;;;;;18.10;12.80;;;24.30;83.10;;;24.83;55.21;95075.91;5071712;28;20478;-56
2023/08/24 01:19:42;;;;;;;16.43;13.20;;;24.20;83.30;;;24.74;55.53;95063.78;5072877;28;20588;-59
2023/08/24 01:22:19;;;;;;;14.27;12.60;;;24.20;84.00;;;24.70;55.88;95063.41;5071153;28;20453;-60
2023/08/24 01:24:49;;;;;;;16.20;12.73;;;24.10;84.10;;;24.67;55.77;95053.09;5072100;28;20465;-59
2023/08/24 01:27:17;;;;;;;15.67;13.33;;;24.00;84.70;;;24.65;55.92;95060.56;5071904;28;20533;-55
2023/08/24 01:29:45;;;;;;;15.47;11.30;;;24.00;85.40;;;24.62;55.44;95063.72;5071597;28;20478;-55
2023/08/24 01:32:12;;;;;;;14.00;12.10;;;24.00;85.30;;;24.60;55.47;95068.50;5077375;28;20992;-59
2023/08/24 01:34:39;;;;;;;14.60;12.30;;;23.90;85.20;;;24.59;56.09;95071.41;5070779;28;20547;-59
2023/08/24 01:37:07;;;;;;;19.97;12.90;;;23.90;85.50;;;24.58;55.41;95067.88;5076981;28;20628;-55
2023/08/24 01:39:41;;;;;;;13.83;11.27;;;23.90;85.70;;;24.58;56.00;95062.50;5069838;28;20478;-58
2023/08/24 01:42:08;;;;;;;14.00;12.07;;;23.90;85.90;;;24.58;55.46;95067.88;5077794;28;20446;-59
2023/08/24 01:44:39;;;;;;;14.20;11.70;;;23.90;85.90;;;24.58;55.97;95070.56;5069218;28;20472;-60
2023/08/24 01:47:06;;;;;;;13.60;11.83;;;23.90;86.10;;;24.55;55.78;95070.16;5074465;28;20442;-58
2023/08/24 01:49:33;;;;;;;15.13;11.77;;;23.90;86.40;;;24.50;55.50;95071.66;5074742;28;20475;-58
2023/08/24 01:52:00;;;;;;;13.30;12.00;;;23.90;86.10;;;24.46;55.91;95077.69;5072112;28;20459;-55
2023/08/24 01:54:28;;;;;;;13.00;11.40;;;23.80;86.20;;;24.41;56.17;95080.22;5074748;28;20567;-56
2023/08/24 01:56:55;;;;;;;17.13;11.83;;;23.80;86.40;;;24.38;56.12;95086.84;5074605;28;20489;-60
2023/08/24 01:59:22;;;;;;;17.17;12.47;;;23.70;87.00;;;24.36;55.91;95088.13;5074394;28;20478;-58
2023/08/24 02:01:51;;;;;;;13.77;11.70;;;23.70;87.20;;;24.32;56.78;95079.69;5072496;28;20453;-59
2023/08/24 02:04:18;;;;;;;13.70;11.50;;;23.70;87.40;;;24.30;56.89;95081.78;5073231;28;20577;-59
2023/08/24 02:06:45;;;;;;;13.33;11.90;;;23.70;88.00;;;24.28;57.07;95084.69;5078422;28;20813;-56
2023/08/24 02:09:12;;;;;;;15.20;12.40;;;23.70;88.70;;;24.26;56.49;95077.88;5073089;28;20470;-56
2023/08/24 02:11:40;;;;;;;17.43;11.50;;;23.60;88.70;;;24.23;57.29;95079.16;5072445;28;20445;-55
2023/08/24 02:14:07;;;;;;;15.27;12.73;;;23.60;89.00;;;24.24;56.75;95082.66;5073291;28;20688;-59
2023/08/24 02:16:34;;;;;;;17.30;14.17;;;23.60;89.50;;;24.20;56.83;95084.13;5072386;28;20490;-59
2023/08/24 02:19:03;;;;;;;25.23;13.13;;;23.60;89.90;;;24.20;56.75;95090.34;5072584;28;20471;-58
2023/08/24 02:21:30;;;;;;;16.33;12.17;;;23.60;90.00;;;24.18;56.84;95092.41;5070200;28;20569;-58
2023/08/24 02:23:58;;;;;;;12.90;11.70;;;23.50;89.90;;;24.16;56.71;95087.25;5072759;28;20516;-59
2023/08/24 02:26:25;;;;;;;14.60;12.00;;;23.50;89.90;;;24.13;57.66;95085.00;5073103;28;20457;-59
2023/08/24 02:28:52;;;;;;;16.77;12.03;;;23.50;90.20;;;24.11;57.03;95084.41;5071965;28;20986;-59
2023/08/24 02:31:20;;;;;;;13.43;11.93;;;23.50;90.40;;;24.10;57.15;95084.63;5072418;28;21239;-58
2023/08/24 02:33:48;;;;;;;14.10;12.30;;;23.50;90.30;;;24.04;57.76;95077.44;5074611;28;20480;-59
2023/08/24 02:36:17;;;;;;;16.60;13.03;;;23.40;90.60;;;23.93;57.30;95068.22;5070485;28;20520;-58
2023/08/24 02:38:44;;;;;;;13.70;12.23;;;23.40;90.40;;;23.83;57.36;95066.00;5074668;28;20534;-59
2023/08/24 02:41:12;;;;;;;12.57;11.27;;;23.30;90.60;;;23.75;57.90;95074.28;5069521;28;20954;-56
2023/08/24 02:43:39;;;;;;;15.57;12.33;;;23.20;91.20;;;23.73;58.59;95079.88;5074189;28;20480;-62
2023/08/24 02:46:09;;;;;;;18.97;12.27;;;23.10;91.50;;;23.72;58.39;95069.34;5073885;28;20500;-59
2023/08/24 02:48:36;;;;;;;12.10;10.80;;;23.10;91.60;;;23.72;58.01;95066.66;5074481;28;20477;-55
2023/08/24 02:51:05;;;;;;;13.10;11.70;;;23.10;91.70;;;23.71;57.92;95068.53;5069306;28;20454;-56
2023/08/24 02:53:34;;;;;;;17.13;11.50;;;23.10;91.60;;;23.71;58.57;95070.41;5069427;28;20542;-58
2023/08/24 02:56:01;;;;;;;12.73;11.07;;;23.10;91.80;;;23.71;57.99;95076.59;5069526;28;20497;-55
2023/08/24 02:58:28;;;;;;;13.67;12.27;;;23.10;92.00;;;23.73;58.79;95079.06;5069187;28;20462;-56
2023/08/24 03:00:56;;;;;;;19.50;11.17;;;23.10;92.30;;;23.74;57.93;95086.09;5070717;28;20546;-56
2023/08/24 03:03:25;;;;;;;19.13;13.40;;;23.10;92.20;;;23.74;58.35;95086.09;5071825;28;20639;-54
2023/08/24 03:05:56;;;;;;;16.90;11.57;;;23.10;92.20;;;23.74;58.94;95076.16;5084591;28;20456;-59
2023/08/24 03:08:23;;;;;;;12.30;11.00;;;23.10;92.30;;;23.75;58.67;95076.97;5071962;28;20477;-59
2023/08/24 03:10:52;;;;;;;25.83;11.53;;;23.10;92.10;;;23.73;58.24;95085.25;5073844;28;20454;-58
2023/08/24 03:13:19;;;;;;;15.47;11.73;;;23.10;92.20;;;23.71;58.12;95092.72;5071026;28;20895;-60
2023/08/24 03:15:46;;;;;;;14.93;11.30;;;23.10;92.30;;;23.74;58.82;95096.84;5073867;28;20498;-59
2023/08/24 03:18:14;;;;;;;18.53;12.27;;;23.10;92.30;;;23.78;58.62;95098.03;5071203;28;20482;-56
2023/08/24 03:20:41;;;;;;;16.67;11.87;;;23.20;92.30;;;23.80;57.92;95090.59;5068936;28;20453;-59
2023/08/24 03:23:09;;;;;;;16.13;11.97;;;23.20;92.00;;;23.77;58.30;95096.41;5072453;28;20983;-55
2023/08/24 03:25:38;;;;;;;12.43;11.33;;;23.20;91.80;;;23.72;58.25;95098.91;5071664;28;20473;-58
2023/08/24 03:28:08;;;;;;;15.60;11.73;;;23.10;91.70;;;23.70;58.06;95095.63;5074615;28;20553;-57
2023/08/24 03:30:36;;;;;;;17.00;12.90;;;23.10;91.70;;;23.66;58.29;95102.47;5070084;28;20449;-60
2023/08/24 03:33:04;;;;;;;14.00;12.43;;;23.10;91.90;;;23.61;57.88;95097.75;5069712;28;20824;-56
2023/08/24 03:35:32;;;;;;;19.10;12.53;;;23.00;91.90;;;23.57;57.91;95091.97;5075223;28;20445;-55
2023/08/24 03:37:59;;;;;;;13.47;11.47;;;23.00;91.90;;;23.54;58.50;95102.34;5067415;28;20494;-56
2023/08/24 03:40:28;;;;;;;14.83;12.63;;;22.90;91.90;;;23.53;58.36;95106.03;5067044;28;20491;-54
2023/08/24 03:42:55;;;;;;;13.23;11.93;;;22.90;92.00;;;23.51;58.48;95119.69;5065692;28;21360;-59
2023/08/24 03:45:24;;;;;;;13.10;11.80;;;22.90;92.30;;;23.49;57.73;95119.09;5074183;28;20527;-56
2023/08/24 03:47:51;;;;;;;19.13;11.53;;;22.90;92.10;;;;;;5067025;28;20458;-58
2023/08/24 03:50:18;;;;;;;15.30;13.17;;;22.90;92.00;;;23.43;57.93;95111.88;5075336;28;21045;-57
2023/08/24 03:52:46;;;;;;;14.70;13.13;;;22.80;92.00;;;23.40;58.52;95120.38;5066509;28;20803;-57
2023/08/24 03:55:13;;;;;;;13.63;12.23;;;22.80;92.20;;;23.35;58.35;95123.69;5071293;28;20450;-57
2023/08/24 03:57:40;;;;;;;14.67;12.53;;;22.80;92.20;;;23.30;58.48;95128.03;5072929;28;20486;-59
2023/08/24 04:00:11;;;;;;;19.53;12.37;;;22.70;92.30;;;23.25;58.21;95116.09;5071964;28;20469;-56
2023/08/24 04:02:39;;;;;;;14.63;13.23;;;22.70;92.40;;;23.22;58.93;95126.41;5068011;28;20489;-56
2023/08/24 04:05:07;;;;;;;17.87;13.07;;;22.60;92.30;;;23.22;59.06;95124.59;5071530;28;20455;-59
2023/08/24 04:07:36;;;;;;;17.50;13.33;;;22.60;92.60;;;23.20;58.20;95123.94;5074418;28;20449;-59
2023/08/24 04:10:04;;;;;;;16.60;13.20;;;22.60;92.70;;;23.17;58.25;95118.19;5070263;28;20869;-56
2023/08/24 04:12:31;;;;;;;15.67;13.87;;;22.60;92.70;;;23.14;58.54;95116.75;5070557;28;20481;-59
2023/08/24 04:14:59;;;;;;;19.20;13.43;;;22.50;92.90;;;23.16;59.43;95114.69;5072825;28;20536;-58
2023/08/24 04:17:26;;;;;;;15.00;13.40;;;22.60;93.10;;;23.17;59.08;95115.50;5069539;28;20486;-57
2023/08/24 04:19:55;;;;;;;19.40;13.80;;;22.60;93.50;;;23.18;59.46;95115.28;5072975;28;20473;-55
2023/08/24 04:22:24;;;;;;;17.53;12.50;;;22.60;93.60;;;23.19;59.69;95116.09;5067474;28;20451;-60
2023/08/24 04:24:52;;;;;;;21.47;13.23;;;22.60;93.80;;;23.20;59.43;95123.94;5068527;28;20494;-57
2023/08/24 04:27:19;;;;;;;17.03;12.87;;;22.60;93.90;;;23.22;59.79;95121.91;5074570;28;20558;-56
2023/08/24 04:29:46;;;;;;;15.10;12.87;;;22.60;93.90;;;23.24;59.43;95135.09;5068919;28;21074;-56
2023/08/24 04:32:14;;;;;;;27.93;15.90;;;22.60;93.90;;;23.26;59.14;95133.84;5070464;28;20505;-57
2023/08/24 04:34:41;;;;;;;15.53;12.30;;;22.70;94.00;;;23.31;59.75;95141.25;5072306;28;20543;-60
2023/08/24 04:37:09;;;;;;;13.23;11.57;;;22.70;93.80;;;23.36;58.89;95135.25;5070076;28;20925;-57
2023/08/24 04:39:37;;;;;;;19.90;13.70;;;22.70;93.80;;;23.39;58.97;95127.59;5067055;28;20519;-56
2023/08/24 04:42:05;;;;;;;15.13;13.53;;;22.80;93.70;;;23.43;58.80;95125.31;5069752;28;21033;-60
2023/08/24 04:44:32;;;;;;;21.13;12.73;;;22.80;93.60;;;23.46;59.08;95124.88;5067273;28;20482;-56
2023/08/24 04:46:59;;;;;;;20.40;14.27;;;22.80;93.60;;;23.49;58.40;95113.72;5071961;28;20454;-56
2023/08/24 04:49:28;;;;;;;26.83;13.90;;;22.90;93.70;;;23.50;58.68;95110.00;5066706;28;20470;-58
2023/08/24 04:51:55;;;;;;;21.10;12.87;;;22.90;93.40;;;23.50;59.14;95111.84;5071475;28;20457;-59
2023/08/24 04:54:24;;;;;;;16.53;13.57;;;22.90;93.40;;;23.53;58.74;95114.09;5069870;28;20470;-60
2023/08/24 04:56:51;;;;;;;16.10;13.70;;;22.90;93.50;;;23.57;59.45;95121.50;5072756;28;20574;-56
2023/08/24 04:59:18;;;;;;;16.43;12.30;;;22.90;93.60;;;23.61;59.55;95130.78;5078662;28;20465;-59
2023/08/24 05:01:46;;;;;;;18.00;13.40;;;23.00;93.70;;;23.67;59.32;95130.97;5076278;28;20921;-56
2023/08/24 05:04:13;;;;;;;24.13;13.80;;;23.00;93.80;;;23.71;58.93;95135.69;5070883;28;20466;-56
2023/08/24 05:06:40;;;;;;;15.53;13.40;;;23.10;93.90;;;23.76;58.75;95143.09;5079136;28;20451;-57
2023/08/24 05:09:08;;;;;;;15.47;13.30;;;23.10;93.70;;;23.78;58.57;95135.66;5069946;28;20977;-60
2023/08/24 05:11:36;;;;;;;17.07;13.10;;;23.20;93.60;;;23.83;58.32;95143.06;5073042;28;20450;-59
2023/08/24 05:14:04;;;;;;;21.30;12.93;;;23.20;93.50;;;23.86;59.22;95142.66;5076615;28;20547;-59
2023/08/24 05:16:32;;;;;;;13.83;12.20;;;23.20;93.50;;;23.92;58.75;95153.38;5072240;28;20494;-60
2023/08/24 05:18:59;;;;;;;17.83;12.33;;;23.30;93.40;;;23.95;58.28;95147.56;5075970;28;20481;-60
2023/08/24 05:21:26;;;;;;;19.27;12.27;;;23.30;93.40;;;24.02;58.04;95152.09;5074199;28;20540;-55
2023/08/24 05:23:53;;;;;;;13.37;11.70;;;23.40;93.20;;;24.07;57.86;95152.25;5072529;28;20510;-59
2023/08/24 05:26:24;;;;;;;14.30;11.57;;;23.40;92.70;;;24.11;58.26;95148.09;5073807;28;20500;-55
2023/08/24 05:28:54;;;;;;;23.93;11.90;;;23.50;92.70;;;24.17;58.16;95152.59;5071383;28;21116;-56
2023/08/24 05:31:21;;;;;;;21.03;12.67;;;23.50;92.80;;;24.24;57.90;95160.59;5072890;28;20524;-56
2023/08/24 05:33:48;;;;;;;19.80;11.70;;;23.60;92.70;;;24.30;57.48;95163.22;5072901;28;20473;-56
2023/08/24 05:36:15;;;;;;;16.33;12.20;;;23.60;92.60;;;24.39;57.86;95165.66;5068636;28;20460;-58
2023/08/24 05:38:46;;;;;;;20.27;11.67;;;23.70;92.50;;;24.45;57.29;95159.41;5071400;28;21110;-57
2023/08/24 05:41:14;;;;;;;21.57;13.10;;;23.80;92.30;;;24.52;57.05;95152.94;5072573;28;20442;-57
2023/08/24 05:43:42;;;;;;;20.20;14.23;;;23.90;92.20;;;24.58;57.30;95164.69;5077846;28;20601;-59
2023/08/24 05:46:11;;;;;;;33.13;13.50;;;23.90;91.90;;;24.66;57.19;95172.50;5075603;28;20534;-60
2023/08/24 05:48:38;;;;;;;20.07;13.53;;;24.00;91.80;;;24.76;57.22;95190.00;5079556;28;20465;-55
2023/08/24 05:51:08;;;;;;;19.53;14.30;;;24.10;91.80;;;24.87;56.49;95168.56;5075608;28;20503;-61
2023/08/24 05:53:36;;;;;;;15.37;13.43;;;24.20;91.70;;;25.00;56.66;95178.41;5073984;28;20521;-60
2023/08/24 05:56:03;;;;;;;22.20;14.60;;;24.30;91.50;;;25.10;56.29;95169.81;5072482;28;20458;-60
2023/08/24 05:58:31;;;;;;;22.80;14.30;;;24.40;91.30;;;25.17;55.79;95167.84;5071016;28;20482;-61
2023/08/24 06:00:59;;;;;;;19.63;14.73;;;24.50;90.90;;;25.25;55.16;95169.41;5068408;28;20478;-59
2023/08/24 06:03:28;;;;;;;25.20;14.60;;;24.60;90.60;;;25.29;55.23;95176.03;5070326;28;20540;-55
2023/08/24 06:05:55;;;;;;;20.47;14.20;;;24.70;90.40;;;25.33;55.19;95176.41;5080069;28;20442;-58
2023/08/24 06:08:23;;;;;;;22.10;13.97;;;24.70;90.00;;;25.38;54.87;95169.31;5070204;28;20470;-57
2023/08/24 06:10:50;;;;;;;27.73;15.20;;;24.70;89.90;;;25.51;54.84;95173.69;5074253;28;20497;-60
2023/08/24 06:13:17;;;;;;;18.13;12.90;;;24.80;89.70;;;25.64;54.41;95178.13;5073326;28;20889;-60
2023/08/24 06:15:44;;;;;;;18.73;13.00;;;24.90;89.40;;;25.79;54.59;95176.88;5073666;28;20499;-57
2023/08/24 06:18:12;;;;;;;17.20;14.10;;;25.10;88.80;;;25.94;53.93;95163.81;5073022;28;21029;-61
2023/08/24 06:20:40;;;;;;;14.63;12.40;;;25.20;88.30;;;26.09;53.49;95168.84;5070081;28;20457;-60
2023/08/24 06:23:08;;;;;;;23.93;14.50;;;25.40;87.40;;;26.20;53.23;95173.44;5070082;28;20466;-57
2023/08/24 06:25:36;;;;;;;23.00;13.73;;;25.50;86.60;;;26.31;52.98;95174.53;5072283;28;20549;-59
2023/08/24 06:28:04;;;;;;;16.30;12.50;;;25.60;86.00;;;26.43;52.91;95172.69;5068770;28;20912;-60
2023/08/24 06:30:36;;;;;;;18.50;13.83;;;25.80;85.70;;;26.55;52.75;95169.16;5071798;28;20442;-56
2023/08/24 06:33:05;;;;;;;32.27;14.90;;;25.80;85.00;;;26.67;52.56;95172.72;5069540;28;20466;-60
2023/08/24 06:35:32;;;;;;;25.73;14.80;;;26.00;84.60;;;26.82;52.30;95185.78;5076738;28;20464;-59
2023/08/24 06:38:01;;;;;;;21.70;12.57;;;26.10;84.20;;;27.00;52.08;95184.81;5069849;28;20520;-59
2023/08/24 06:40:28;;;;;;;21.57;13.50;;;26.30;84.00;;;27.25;51.32;95181.03;5076375;28;20946;-59
2023/08/24 06:42:55;;;;;;;26.37;13.80;;;26.50;82.80;;;27.41;50.94;95177.66;5069230;28;20474;-57
2023/08/24 06:45:22;;;;;;;26.27;14.83;;;26.70;82.10;;;27.65;50.82;95169.47;5076503;28;20542;-57
2023/08/24 06:47:51;;;;;;;18.77;13.70;;;26.90;81.60;;;27.90;50.54;95174.56;5069919;28;20627;-57
2023/08/24 06:50:19;;;;;;;30.20;15.00;;;27.10;80.90;;;28.23;50.53;95165.75;5076294;28;20613;-57
2023/08/24 06:52:46;;;;;;;24.17;15.50;;;27.40;80.50;;;28.50;49.66;95165.09;5069869;28;20537;-60
2023/08/24 06:55:15;;;;;;;24.40;13.60;;;27.70;78.90;;;28.71;48.56;95154.66;5072525;28;20450;-60
2023/08/24 06:57:42;;;;;;;19.73;13.57;;;27.90;77.80;;;28.79;48.03;95162.34;5074551;28;20494;-55
2023/08/24 07:00:12;;;;;;;18.80;13.63;;;28.00;76.60;;;28.79;48.40;95165.06;5073301;28;20528;-57
2023/08/24 07:02:40;;;;;;;26.47;13.77;;;28.10;76.10;;;28.72;47.89;95161.69;5070502;28;20450;-56
2023/08/24 07:05:08;;;;;;;19.53;15.20;;;28.00;75.10;;;28.67;48.45;95164.31;5078392;28;20457;-61
2023/08/24 07:07:35;;;;;;;19.07;13.33;;;27.90;75.10;;;28.73;48.67;95160.63;5079376;28;20446;-60
2023/08/24 07:10:04;;;;;;;22.60;14.23;;;28.00;75.50;;;28.97;47.82;95170.22;5075547;28;20437;-56
2023/08/24 07:12:33;;;;;;;18.43;13.30;;;28.10;75.60;;;29.24;47.48;95155.97;5070141;28;20931;-59
2023/08/24 07:15:00;;;;;;;18.00;13.53;;;28.40;74.70;;;29.55;47.20;95156.38;5074006;28;20457;-60
2023/08/24 07:17:27;;;;;;;20.60;13.97;;;28.70;74.90;;;29.90;47.56;95152.47;5075674;28;20231;-58
2023/08/24 07:19:54;;;;;;;16.27;12.57;;;29.00;74.40;;;30.34;46.95;95155.06;5068715;28;20544;-60
2023/08/24 07:22:22;;;;;;;13.80;12.23;;;29.40;73.30;;;30.79;45.72;95152.22;5068439;28;20707;-57
2023/08/24 07:24:52;;;;;;;16.27;11.40;;;29.80;71.60;;;31.21;44.20;95144.06;5070459;28;20325;-57
2023/08/24 07:27:19;;;;;;;16.00;13.10;;;30.20;69.20;;;31.62;44.10;95149.75;5075124;28;20203;-60
2023/08/24 07:29:48;;;;;;;15.77;12.47;;;30.70;69.60;;;32.02;43.56;95144.69;5069324;28;20324;-57
2023/08/24 07:32:15;;;;;;;24.38;12.35;;;31.10;68.10;;;32.44;43.09;95143.69;5072991;28;20203;-57
2023/08/24 07:34:42;;;;;;;23.98;12.80;;;31.50;67.10;;;32.85;42.23;95151.06;5073791;28;20308;-57
2023/08/24 07:37:10;;;;;;;16.67;10.40;;;31.90;66.10;;;33.24;41.58;95153.22;5071687;28;20210;-57
2023/08/24 07:39:38;;;;;;;25.10;12.20;;;32.30;64.70;;;33.64;40.31;95150.63;5074119;28;20224;-61
2023/08/24 07:42:06;;;;;;;12.43;11.02;;;32.60;62.70;;;33.92;39.97;95151.88;5070588;28;20221;-57
2023/08/24 07:44:33;;;;;;;17.95;12.25;;;32.90;61.90;;;34.24;39.13;95147.94;5070378;28;20626;-56
2023/08/24 07:47:02;;;;;;;22.23;12.65;;;33.30;60.50;;;34.44;38.57;95146.94;5073717;28;20204;-56
2023/08/24 07:49:29;;;;;;;14.18;11.10;;;33.50;59.30;;;34.57;38.67;95151.75;5069655;28;20231;-61
2023/08/24 07:51:57;;;;;;;17.98;11.65;;;33.70;58.70;;;34.68;37.75;95146.22;5074620;28;20238;-58
2023/08/24 07:54:24;;;;;;;17.75;12.13;;;33.80;58.40;;;34.87;38.32;95144.44;5069502;28;20219;-60
2023/08/24 07:56:52;;;;;;;23.95;10.52;;;34.00;57.90;;;35.12;37.17;95143.38;5075924;28;20557;-57
2023/08/24 07:59:19;;;;;;;17.90;12.43;;;34.20;57.70;;;35.40;37.30;95138.19;5070736;28;20699;-59
2023/08/24 08:01:46;;;;;;;14.30;10.90;;;34.40;56.90;;;35.65;36.74;95141.72;5070491;28;21056;-60
2023/08/24 08:04:15;;;;;;;48.00;13.48;;;34.70;56.50;;;35.93;36.08;95148.25;5072459;28;20729;-60
2023/08/24 08:06:42;;;;;;;13.23;10.70;;;35.00;55.60;;;36.06;35.67;95142.00;5075386;28;20261;-55
2023/08/24 08:09:09;;;;;;;11.35;10.15;;;35.20;54.30;;;36.11;35.35;95145.81;5073403;28;20224;-57
2023/08/24 08:11:37;;;;;;;14.30;10.30;;;35.30;54.10;;;36.22;34.91;95145.38;5070592;28;20215;-56
2023/08/24 08:14:04;;;;;;;15.00;11.10;;;35.50;53.60;;;36.48;34.80;95141.44;5072638;28;20227;-55
2023/08/24 08:16:31;;;;;;;13.73;10.57;;;35.70;53.20;;;36.83;34.34;95140.09;5070106;28;20599;-57
2023/08/24 08:18:59;;;;;;;30.52;12.20;;;36.10;53.20;;;37.21;33.63;95150.91;5071273;28;20718;-60
2023/08/24 08:21:27;;;;;;;18.67;11.07;;;36.40;51.90;;;37.54;33.37;95139.06;5067032;28;20196;-62
2023/08/24 08:23:55;;;;;;;22.92;12.18;;;36.80;51.40;;;37.74;32.98;95135.97;5070591;28;20227;-58
2023/08/24 08:26:22;;;;;;;18.30;11.02;;;37.10;50.90;;;37.92;32.72;95136.94;5064922;28;20208;-61
2023/08/24 08:28:49;;;;;;;16.52;10.90;;;37.30;50.40;;;38.08;32.33;95134.69;5069236;28;20303;-60
2023/08/24 08:31:17;;;;;;;11.57;10.38;;;37.50;50.50;;;38.20;32.04;95126.72;5069104;28;20204;-64
2023/08/24 08:33:44;;;;;;;15.30;9.48;;;37.60;49.90;;;38.26;31.32;95141.16;5073164;28;20231;-56
2023/08/24 08:36:11;;;;;;;17.45;9.90;;;37.70;48.50;;;38.25;31.80;95125.78;5067666;28;20211;-57
2023/08/24 08:38:40;;;;;;;11.13;10.13;;;37.50;48.60;;;38.40;31.26;95119.13;5074258;28;20243;-60
2023/08/24 08:41:07;;;;;;;24.50;11.18;;;37.60;48.60;;;38.49;30.93;95116.44;5067673;28;20208;-60
2023/08/24 08:43:34;;;;;;;19.00;10.82;;;37.70;48.00;;;38.41;31.32;95115.25;5074524;28;20227;-60
2023/08/24 08:46:02;;;;;;;17.60;10.10;;;37.70;47.90;;;38.35;31.35;95124.75;5068622;28;20341;-60
2023/08/24 08:48:29;;;;;;;27.33;10.02;;;37.60;47.90;;;38.42;30.56;95110.56;5071519;28;20631;-57
2023/08/24 08:50:58;;;;;;;21.50;10.73;;;37.60;47.60;;;38.46;30.93;95111.56;5072085;28;20235;-60
2023/08/24 08:53:25;;;;;;;14.07;9.93;;;37.60;47.30;;;38.51;30.60;95105.94;5070127;28;20227;-59
2023/08/24 08:55:57;;;;;;;12.48;10.10;;;37.60;47.00;;;38.65;31.00;95109.47;5072358;28;20200;-61
2023/08/24 08:58:24;;;;;;;27.38;10.50;;;37.80;47.50;;;38.92;30.37;95103.00;5068606;28;20318;-60
2023/08/24 09:00:52;;;;;;;15.75;10.98;;;37.90;47.40;;;39.28;30.23;95105.97;5070553;28;20306;-57
2023/08/24 09:03:19;;;;;;;22.23;10.50;;;38.30;47.50;;;39.49;29.77;95101.50;5071891;28;20759;-60
2023/08/24 09:05:47;;;;;;;18.48;10.50;;;38.50;46.60;;;39.59;29.28;95092.16;5074761;28;20276;-56
2023/08/24 09:08:15;;;;;;;21.50;11.18;;;38.70;46.20;;;39.67;29.98;95093.31;5068857;28;20300;-59
2023/08/24 09:10:43;;;;;;;11.40;10.23;;;38.70;45.80;;;39.59;29.56;95083.91;5068315;28;20569;-56
2023/08/24 09:13:12;;;;;;;11.60;10.18;;;38.70;45.60;;;39.40;28.83;95086.91;5068661;28;20227;-59
2023/08/24 09:15:39;;;;;;;11.75;10.57;;;38.60;45.30;;;39.27;29.79;95080.38;5067460;28;20208;-56
2023/08/24 09:18:06;;;;;;;13.30;10.52;;;38.40;45.60;;;39.31;29.41;95072.31;5073602;28;20227;-58
2023/08/24 09:20:34;;;;;;;16.40;11.63;;;38.40;46.10;;;39.49;30.36;95065.72;5065957;28;20204;-57
2023/08/24 09:23:02;;;;;;;14.75;11.63;;;38.50;46.10;;;39.77;30.11;95060.78;5068771;28;20220;-57
2023/08/24 09:25:29;;;;;;;13.68;11.20;;;38.80;46.00;;;40.05;29.68;95056.91;5066758;28;20585;-57
2023/08/24 09:28:00;;;;;;;16.95;12.02;;;39.00;46.00;;;40.31;29.11;95057.75;5069944;28;20731;-61
2023/08/24 09:30:32;;;;;;;19.02;11.32;;;39.20;45.40;;;40.60;29.50;95053.50;5072230;28;20269;-56
2023/08/24 09:33:04;;;;;;;48.42;11.77;;;39.50;45.30;;;40.88;29.06;95055.88;5071108;28;20229;-56
2023/08/24 09:35:36;;;;;;;21.23;11.68;;;39.80;45.00;;;41.11;28.33;95061.16;5069481;28;20212;-58
2023/08/24 09:38:17;;;;;;;18.50;12.40;;;40.00;44.60;;;41.32;28.44;95061.25;5066593;28;20297;-56
2023/08/24 09:40:48;;;;;;;17.92;11.82;;;40.30;44.50;;;41.41;28.66;95052.94;5069114;28;20224;-56
2023/08/24 09:43:15;;;;;;;16.33;11.02;;;40.40;44.10;;;41.52;27.92;95048.63;5069866;28;20219;-55
2023/08/24 09:45:51;;;;;;;23.40;12.07;;;40.50;43.70;;;41.62;27.29;95050.22;5073693;28;20289;-57
2023/08/24 09:48:18;;;;;;;12.65;11.40;;;40.70;42.70;;;41.52;27.46;95041.19;5069848;28;20255;-61
2023/08/24 09:50:46;;;;;;;17.52;11.55;;;40.60;42.60;;;41.54;27.29;95040.84;5073795;28;20208;-58
2023/08/24 09:53:18;;;;;;;15.73;10.48;;;40.60;42.60;;;41.61;27.51;95026.50;5073119;28;20251;-61
2023/08/24 09:55:49;;;;;;;16.70;11.05;;;40.60;42.50;;;41.71;27.23;95029.69;5074417;28;20238;-61
2023/08/24 09:58:17;;;;;;;30.45;12.55;;;40.70;42.30;;;41.74;27.00;95022.72;5075003;28;20318;-58
2023/08/24 10:00:44;;;;;;;22.75;11.52;;;40.70;42.30;;;41.79;27.51;95025.25;5072390;28;20699;-60
2023/08/24 10:03:14;;;;;;;15.52;11.50;;;40.80;42.40;;;41.87;27.34;95020.81;5070563;28;20220;-56
2023/08/24 10:05:41;;;;;;;11.95;10.75;;;40.80;42.20;;;42.01;26.92;95021.34;5077802;28;20203;-56
2023/08/24 10:08:10;;;;;;;24.45;13.85;;;40.90;41.80;;;42.14;26.72;95022.25;5070859;28;20262;-57
2023/08/24 10:10:37;;;;;;;32.35;12.25;;;41.10;41.70;;;42.18;26.66;95016.84;5072569;28;20230;-57